createdAt,value
2017-09-05T00:00:39.812Z,95.22
2017-09-05T00:01:45.919Z,95.80
2017-09-05T00:02:51.980Z,96.10
2017-09-05T00:03:57.686Z,95.98
2017-09-05T00:05:03.828Z,95.99
2017-09-05T00:06:10.013Z,95.53
2017-09-05T00:07:31.512Z,95.68
2017-09-05T00:08:50.472Z,96.09
2017-09-05T00:10:04.800Z,96.38
2017-09-05T00:11:27.054Z,96.39
2017-09-05T00:12:45.348Z,96.34
2017-09-05T00:14:09.580Z,96.15
2017-09-05T00:15:44.367Z,97.11
2017-09-05T00:17:05.780Z,96.88
2017-09-05T00:18:27.678Z,96.59
2017-09-05T00:19:45.738Z,95.80
2017-09-05T00:20:51.657Z,95.41
2017-09-05T00:21:59.117Z,95.50
2017-09-05T00:23:07.617Z,95.74
2017-09-05T00:24:13.750Z,95.62
2017-09-05T00:25:19.777Z,95.70
2017-09-05T00:26:26.367Z,95.47
2017-09-05T00:27:33.018Z,95.85
2017-09-05T00:28:38.969Z,95.96
2017-09-05T00:29:46.603Z,95.56
2017-09-05T00:30:53.422Z,95.68
2017-09-05T00:31:59.687Z,96.29
2017-09-05T00:33:05.751Z,96.20
2017-09-05T00:34:11.832Z,97.05
2017-09-05T00:35:18.856Z,97.27
2017-09-05T00:36:24.977Z,97.32
2017-09-05T00:37:31.861Z,97.46
2017-09-05T00:38:38.306Z,97.85
2017-09-05T00:39:45.093Z,98.06
2017-09-05T00:40:51.802Z,98.74
2017-09-05T00:41:58.872Z,98.29
2017-09-05T00:43:04.404Z,98.27
2017-09-05T00:44:10.149Z,97.98
2017-09-05T00:45:16.853Z,98.02
2017-09-05T00:46:23.572Z,97.89
2017-09-05T00:47:30.622Z,98.18
2017-09-05T00:48:37.820Z,98.21
2017-09-05T00:49:44.226Z,98.74
2017-09-05T00:50:49.941Z,98.13
2017-09-05T00:51:56.819Z,97.17
2017-09-05T00:53:02.918Z,96.95
2017-09-05T00:54:09.721Z,96.72
2017-09-05T00:55:15.779Z,96.39
2017-09-05T00:56:21.990Z,95.95
2017-09-05T00:57:27.833Z,95.99
2017-09-05T00:58:34.305Z,95.93
2017-09-05T00:59:41.276Z,96.29
2017-09-05T01:00:48.039Z,96.96
2017-09-05T01:01:54.164Z,97.41
2017-09-05T01:03:00.260Z,97.29
2017-09-05T01:04:06.838Z,97.85
2017-09-05T01:05:13.442Z,98.32
2017-09-05T01:06:18.619Z,98.13
2017-09-05T01:07:24.130Z,98.72
2017-09-05T01:08:32.372Z,99.07
2017-09-05T01:09:38.757Z,98.69
2017-09-05T01:10:44.526Z,98.94
2017-09-05T01:11:51.644Z,99.12
2017-09-05T01:12:58.835Z,98.86
2017-09-05T01:14:04.710Z,98.96
2017-09-05T01:15:11.388Z,98.63
2017-09-05T01:16:17.599Z,97.94
2017-09-05T01:17:23.779Z,97.88
2017-09-05T01:18:29.591Z,97.29
2017-09-05T01:19:35.048Z,96.66
2017-09-05T01:20:40.761Z,97.25
2017-09-05T01:21:45.974Z,97.19
2017-09-05T01:22:51.983Z,97.83
2017-09-05T01:23:58.183Z,98.33
2017-09-05T01:25:04.359Z,98.43
2017-09-05T01:26:10.480Z,98.65
2017-09-05T01:27:17.235Z,98.47
2017-09-05T01:28:23.518Z,98.63
2017-09-05T01:29:29.651Z,98.90
2017-09-05T01:30:35.763Z,99.48
2017-09-05T01:31:41.833Z,99.80
2017-09-05T01:32:47.932Z,99.70
2017-09-05T01:33:54.056Z,99.68
2017-09-05T01:35:00.159Z,99.21
2017-09-05T01:36:06.843Z,98.80
2017-09-05T01:37:13.233Z,98.61
2017-09-05T01:38:19.389Z,98.42
2017-09-05T01:39:25.523Z,98.38
2017-09-05T01:40:31.389Z,98.52
2017-09-05T01:41:37.393Z,97.81
2017-09-05T01:42:43.583Z,96.68
2017-09-05T01:43:49.701Z,97.01
2017-09-05T01:44:56.137Z,97.62
2017-09-05T01:46:03.221Z,97.42
2017-09-05T01:47:10.090Z,97.42
2017-09-05T01:48:17.105Z,97.19
2017-09-05T01:49:23.810Z,97.20
2017-09-05T01:50:30.391Z,97.40
2017-09-05T01:51:36.379Z,97.96
2017-09-05T01:52:43.524Z,98.00
2017-09-05T01:53:49.669Z,97.74
2017-09-05T01:54:55.978Z,96.85
2017-09-05T01:56:02.103Z,96.55
2017-09-05T01:57:08.289Z,96.23
2017-09-05T01:58:15.102Z,96.35
2017-09-05T01:59:21.197Z,97.30
2017-09-05T02:00:27.948Z,98.30
2017-09-05T02:01:34.445Z,98.84
2017-09-05T02:02:40.936Z,99.04
2017-09-05T02:03:46.449Z,99.25
2017-09-05T02:04:52.556Z,99.15
2017-09-05T02:05:59.164Z,99.09
2017-09-05T02:07:05.985Z,98.92
2017-09-05T02:08:12.707Z,99.00
2017-09-05T02:09:18.808Z,99.13
2017-09-05T02:10:25.671Z,99.05
2017-09-05T02:11:32.401Z,98.83
2017-09-05T02:12:38.525Z,98.42
2017-09-05T02:13:44.636Z,98.18
2017-09-05T02:14:50.720Z,98.10
2017-09-05T02:15:57.616Z,98.09
2017-09-05T02:17:03.670Z,97.92
2017-09-05T02:18:09.786Z,96.96
2017-09-05T02:19:16.244Z,97.33
2017-09-05T02:20:23.264Z,97.60
2017-09-05T02:21:30.088Z,98.83
2017-09-05T02:22:36.346Z,99.05
2017-09-05T02:23:42.447Z,99.08
2017-09-05T02:24:48.562Z,98.56
2017-09-05T02:25:54.664Z,99.06
2017-09-05T02:27:00.766Z,99.43
2017-09-05T02:28:07.464Z,100.00
2017-09-05T02:29:14.140Z,100.00
2017-09-05T02:30:21.106Z,100.00
2017-09-05T02:31:27.221Z,100.00
2017-09-05T02:32:33.416Z,100.00
2017-09-05T02:33:40.201Z,100.00
2017-09-05T02:34:46.467Z,100.00
2017-09-05T02:35:53.420Z,100.00
2017-09-05T02:36:59.910Z,100.00
2017-09-05T02:38:06.718Z,100.00
2017-09-05T02:39:12.855Z,99.85
2017-09-05T02:40:19.253Z,99.95
2017-09-05T02:41:25.372Z,100.00
2017-09-05T02:42:31.523Z,99.90
2017-09-05T02:43:37.715Z,99.92
2017-09-05T02:44:43.836Z,99.39
2017-09-05T02:45:50.703Z,98.96
2017-09-05T02:46:57.632Z,99.73
2017-09-05T02:48:03.712Z,99.86
2017-09-05T02:49:10.560Z,99.61
2017-09-05T02:50:16.837Z,98.85
2017-09-05T02:51:22.912Z,98.34
2017-09-05T02:52:29.011Z,98.77
2017-09-05T02:53:35.995Z,99.37
2017-09-05T02:54:42.175Z,98.98
2017-09-05T02:55:48.318Z,98.24
2017-09-05T02:56:54.489Z,97.34
2017-09-05T02:58:00.614Z,97.87
2017-09-05T02:59:07.509Z,98.37
2017-09-05T03:00:13.683Z,98.43
2017-09-05T03:01:20.350Z,98.15
2017-09-05T03:02:26.528Z,98.69
2017-09-05T03:03:32.667Z,99.18
2017-09-05T03:04:38.517Z,99.62
2017-09-05T03:05:45.230Z,99.80
2017-09-05T03:06:51.107Z,98.96
2017-09-05T03:07:57.361Z,99.31
2017-09-05T03:09:03.355Z,99.71
2017-09-05T03:10:10.992Z,99.46
2017-09-05T03:11:17.155Z,99.50
2017-09-05T03:12:23.027Z,99.39
2017-09-05T03:13:29.137Z,98.59
2017-09-05T03:14:35.326Z,98.25
2017-09-05T03:15:41.441Z,98.87
2017-09-05T03:16:48.107Z,99.09
2017-09-05T03:17:54.180Z,98.52
2017-09-05T03:19:00.367Z,98.44
2017-09-05T03:20:06.571Z,99.00
2017-09-05T03:21:13.497Z,99.39
2017-09-05T03:22:19.590Z,99.52
2017-09-05T03:23:26.458Z,99.31
2017-09-05T03:24:33.154Z,99.45
2017-09-05T03:25:39.341Z,99.19
2017-09-05T03:26:45.980Z,98.24
2017-09-05T03:27:52.167Z,98.73
2017-09-05T03:28:59.045Z,99.03
2017-09-05T03:30:05.184Z,99.40
2017-09-05T03:31:12.857Z,98.89
2017-09-05T03:32:19.727Z,98.46
2017-09-05T03:33:26.209Z,99.30
2017-09-05T03:34:32.044Z,100.00
2017-09-05T03:35:38.197Z,100.00
2017-09-05T03:36:47.373Z,99.69
2017-09-05T03:37:54.992Z,99.68
2017-09-05T03:39:01.454Z,100.00
2017-09-05T03:40:08.059Z,100.00
2017-09-05T03:41:14.693Z,100.00
2017-09-05T03:42:20.971Z,100.00
2017-09-05T03:43:27.323Z,100.00
2017-09-05T03:44:33.485Z,100.00
2017-09-05T03:45:40.554Z,100.00
2017-09-05T03:46:46.665Z,100.00
2017-09-05T03:47:53.692Z,100.00
2017-09-05T03:48:59.794Z,100.00
2017-09-05T03:50:06.716Z,100.00
2017-09-05T03:51:13.034Z,100.00
2017-09-05T03:52:20.035Z,100.00
2017-09-05T03:53:26.864Z,100.00
2017-09-05T03:54:33.086Z,100.00
2017-09-05T03:55:40.430Z,100.00
2017-09-05T03:56:47.231Z,100.00
2017-09-05T03:57:53.455Z,100.00
2017-09-05T03:59:00.471Z,100.00
2017-09-05T04:00:07.193Z,100.00
2017-09-05T04:01:14.485Z,100.00
2017-09-05T04:02:22.930Z,100.00
2017-09-05T04:03:29.251Z,100.00
2017-09-05T04:04:35.834Z,100.00
2017-09-05T04:05:43.670Z,100.00
2017-09-05T04:06:51.326Z,100.00
2017-09-05T04:07:57.828Z,100.00
2017-09-05T04:09:03.646Z,100.00
2017-09-05T04:10:10.956Z,100.00
2017-09-05T04:11:18.600Z,100.00
2017-09-05T04:12:25.600Z,100.00
2017-09-05T04:13:34.000Z,100.00
2017-09-05T04:14:41.005Z,100.00
2017-09-05T04:15:48.273Z,100.00
2017-09-05T04:16:54.530Z,100.00
2017-09-05T04:18:00.792Z,100.00
2017-09-05T04:19:07.006Z,100.00
2017-09-05T04:20:13.456Z,100.00
2017-09-05T04:21:20.333Z,100.00
2017-09-05T04:22:27.807Z,100.00
2017-09-05T04:23:34.042Z,100.00
2017-09-05T04:24:40.328Z,100.00
2017-09-05T04:25:46.509Z,100.00
2017-09-05T04:26:53.431Z,100.00
2017-09-05T04:28:00.476Z,100.00
2017-09-05T04:29:07.909Z,99.79
2017-09-05T04:30:14.324Z,99.18
2017-09-05T04:31:20.459Z,98.73
2017-09-05T04:32:27.344Z,98.87
2017-09-05T04:33:34.169Z,99.08
2017-09-05T04:34:40.380Z,99.18
2017-09-05T04:35:47.322Z,99.19
2017-09-05T04:36:53.609Z,99.52
2017-09-05T04:37:59.813Z,100.00
2017-09-05T04:39:05.321Z,100.00
2017-09-05T04:40:11.509Z,100.00
2017-09-05T04:41:18.475Z,100.00
2017-09-05T04:42:25.380Z,100.00
2017-09-05T04:43:31.506Z,100.00
2017-09-05T04:44:39.459Z,100.00
2017-09-05T04:45:45.766Z,100.00
2017-09-05T04:46:52.558Z,100.00
2017-09-05T04:47:58.713Z,100.00
2017-09-05T04:49:04.919Z,100.00
2017-09-05T04:50:12.327Z,100.00
2017-09-05T04:51:18.517Z,100.00
2017-09-05T04:52:25.335Z,100.00
2017-09-05T04:53:32.381Z,100.00
2017-09-05T04:54:39.285Z,100.00
2017-09-05T04:55:46.323Z,99.99
2017-09-05T04:56:52.690Z,98.77
2017-09-05T04:57:59.083Z,98.05
2017-09-05T04:59:05.303Z,97.64
2017-09-05T05:00:11.283Z,97.41
2017-09-05T05:01:19.032Z,97.23
2017-09-05T05:02:26.466Z,97.48
2017-09-05T05:03:32.872Z,97.56
2017-09-05T05:04:40.121Z,97.84
2017-09-05T05:05:46.322Z,98.49
2017-09-05T05:06:54.184Z,98.96
2017-09-05T05:08:00.479Z,99.07
2017-09-05T05:09:07.244Z,99.52
2017-09-05T05:10:14.948Z,99.58
2017-09-05T05:11:21.729Z,99.27
2017-09-05T05:12:28.699Z,98.82
2017-09-05T05:13:34.923Z,98.10
2017-09-05T05:14:41.329Z,97.62
2017-09-05T05:15:49.269Z,98.00
2017-09-05T05:16:56.117Z,98.26
2017-09-05T05:18:03.224Z,98.75
2017-09-05T05:19:09.540Z,98.95
2017-09-05T05:20:15.737Z,98.89
2017-09-05T05:21:22.032Z,99.39
2017-09-05T05:22:31.385Z,99.41
2017-09-05T05:23:37.703Z,99.12
2017-09-05T05:24:44.882Z,99.47
2017-09-05T05:25:51.986Z,99.53
2017-09-05T05:26:58.230Z,99.20
2017-09-05T05:28:04.424Z,99.04
2017-09-05T05:29:11.334Z,98.87
2017-09-05T05:30:18.413Z,98.45
2017-09-05T05:31:26.364Z,98.48
2017-09-05T05:32:34.089Z,98.96
2017-09-05T05:33:41.012Z,98.46
2017-09-05T05:34:47.943Z,98.15
2017-09-05T05:35:55.063Z,97.53
2017-09-05T05:37:02.440Z,97.10
2017-09-05T05:38:11.516Z,96.42
2017-09-05T05:39:18.377Z,95.86
2017-09-05T05:40:26.155Z,95.52
2017-09-05T05:41:32.350Z,96.02
2017-09-05T05:42:39.580Z,95.21
2017-09-05T05:43:46.738Z,95.28
2017-09-05T05:44:54.100Z,94.57
2017-09-05T05:46:03.122Z,94.49
2017-09-05T05:47:10.102Z,94.54
2017-09-05T05:48:17.752Z,93.67
2017-09-05T05:49:24.417Z,93.68
2017-09-05T05:50:30.847Z,93.85
2017-09-05T05:51:37.295Z,93.55
2017-09-05T05:52:43.857Z,92.74
2017-09-05T05:53:50.901Z,92.37
2017-09-05T05:54:57.415Z,91.56
2017-09-05T05:56:04.128Z,92.20
2017-09-05T05:57:11.257Z,92.07
2017-09-05T05:58:17.667Z,91.17
2017-09-05T05:59:24.247Z,91.37
2017-09-05T06:00:32.414Z,91.47
2017-09-05T06:01:38.514Z,91.20
2017-09-05T06:02:46.405Z,91.03
2017-09-05T06:03:53.896Z,90.90
2017-09-05T06:05:00.226Z,90.93
2017-09-05T06:06:06.843Z,90.22
2017-09-05T06:07:13.095Z,90.25
2017-09-05T06:08:20.937Z,89.59
2017-09-05T06:09:28.240Z,89.31
2017-09-05T06:10:34.433Z,89.96
2017-09-05T06:11:42.506Z,89.32
2017-09-05T06:12:48.816Z,89.07
2017-09-05T06:13:55.147Z,88.92
2017-09-05T06:15:02.581Z,88.25
2017-09-05T06:16:09.013Z,88.23
2017-09-05T06:17:16.033Z,88.18
2017-09-05T06:18:23.658Z,87.99
2017-09-05T06:19:29.954Z,87.69
2017-09-05T06:20:37.054Z,87.47
2017-09-05T06:21:44.242Z,87.52
2017-09-05T06:22:50.580Z,87.34
2017-09-05T06:23:56.748Z,87.25
2017-09-05T06:25:04.216Z,87.04
2017-09-05T06:26:11.188Z,87.06
2017-09-05T06:27:17.746Z,86.55
2017-09-05T06:28:24.160Z,87.91
2017-09-05T06:29:31.089Z,87.27
2017-09-05T06:30:37.198Z,87.31
2017-09-05T06:31:44.944Z,86.96
2017-09-05T06:32:51.405Z,86.46
2017-09-05T06:33:57.556Z,86.09
2017-09-05T06:35:04.591Z,85.85
2017-09-05T06:36:10.779Z,85.77
2017-09-05T06:37:18.207Z,85.86
2017-09-05T06:38:24.609Z,86.10
2017-09-05T06:39:31.066Z,84.92
2017-09-05T06:40:38.106Z,84.92
2017-09-05T06:41:45.119Z,85.08
2017-09-05T06:42:52.048Z,84.52
2017-09-05T06:43:59.690Z,85.18
2017-09-05T06:45:07.056Z,84.92
2017-09-05T06:46:13.317Z,84.98
2017-09-05T06:47:20.152Z,83.70
2017-09-05T06:48:26.990Z,84.44
2017-09-05T06:49:33.295Z,84.54
2017-09-05T06:50:40.160Z,84.77
2017-09-05T06:51:46.617Z,84.72
2017-09-05T06:52:52.645Z,84.98
2017-09-05T06:53:58.960Z,82.94
2017-09-05T06:55:05.379Z,84.12
2017-09-05T06:56:13.021Z,83.20
2017-09-05T06:57:20.261Z,83.27
2017-09-05T06:58:26.664Z,82.79
2017-09-05T06:59:33.227Z,82.34
2017-09-05T07:00:41.267Z,82.21
2017-09-05T07:01:48.126Z,82.35
2017-09-05T07:02:54.889Z,82.86
2017-09-05T07:04:01.188Z,82.32
2017-09-05T07:05:07.698Z,82.05
2017-09-05T07:06:14.097Z,81.82
2017-09-05T07:07:20.766Z,81.95
2017-09-05T07:08:27.305Z,81.83
2017-09-05T07:09:34.149Z,80.52
2017-09-05T07:10:40.337Z,80.93
2017-09-05T07:11:47.208Z,81.29
2017-09-05T07:12:53.383Z,81.32
2017-09-05T07:14:00.040Z,81.46
2017-09-05T07:15:07.483Z,80.92
2017-09-05T07:16:14.401Z,80.09
2017-09-05T07:17:20.770Z,80.05
2017-09-05T07:18:27.447Z,81.33
2017-09-05T07:19:33.630Z,80.45
2017-09-05T07:20:39.965Z,80.94
2017-09-05T07:21:46.422Z,80.09
2017-09-05T07:22:53.463Z,81.21
2017-09-05T07:24:00.867Z,79.92
2017-09-05T07:25:07.540Z,79.54
2017-09-05T07:26:14.586Z,79.07
2017-09-05T07:27:21.091Z,79.57
2017-09-05T07:28:27.844Z,79.70
2017-09-05T07:29:34.880Z,78.76
2017-09-05T07:30:41.490Z,79.41
2017-09-05T07:31:48.522Z,78.87
2017-09-05T07:32:56.514Z,77.55
2017-09-05T07:34:02.967Z,78.33
2017-09-05T07:35:09.121Z,77.92
2017-09-05T07:36:15.238Z,77.27
2017-09-05T07:37:21.496Z,78.11
2017-09-05T07:38:29.022Z,77.05
2017-09-05T07:39:35.959Z,77.13
2017-09-05T07:40:43.066Z,76.60
2017-09-05T07:41:49.811Z,76.32
2017-09-05T07:42:56.721Z,76.62
2017-09-05T07:44:02.825Z,75.93
2017-09-05T07:45:09.993Z,77.11
2017-09-05T07:46:18.024Z,75.24
2017-09-05T07:47:24.848Z,75.35
2017-09-05T07:48:33.001Z,74.80
2017-09-05T07:49:39.074Z,75.29
2017-09-05T07:50:45.296Z,74.79
2017-09-05T07:51:53.035Z,73.71
2017-09-05T07:53:00.910Z,73.94
2017-09-05T07:54:07.191Z,73.05
2017-09-05T07:55:13.419Z,72.99
2017-09-05T07:56:20.777Z,73.06
2017-09-05T07:57:27.679Z,72.51
2017-09-05T07:58:34.496Z,71.03
2017-09-05T07:59:40.841Z,72.00
2017-09-05T08:00:46.695Z,71.08
2017-09-05T08:01:53.539Z,71.46
2017-09-05T08:02:59.857Z,72.23
2017-09-05T08:04:06.999Z,71.46
2017-09-05T08:05:13.312Z,71.77
2017-09-05T08:06:20.160Z,72.09
2017-09-05T08:07:26.957Z,70.76
2017-09-05T08:08:34.710Z,69.71
2017-09-05T08:09:40.914Z,69.68
2017-09-05T08:10:47.450Z,70.35
2017-09-05T08:11:53.833Z,71.08
2017-09-05T08:13:01.129Z,69.69
2017-09-05T08:14:08.410Z,68.75
2017-09-05T08:15:14.872Z,68.79
2017-09-05T08:16:21.020Z,68.35
2017-09-05T08:17:26.986Z,67.37
2017-09-05T08:18:33.045Z,67.55
2017-09-05T08:19:39.868Z,68.58
2017-09-05T08:20:45.873Z,67.63
2017-09-05T08:21:52.085Z,67.72
2017-09-05T08:22:58.895Z,67.14
2017-09-05T08:24:05.762Z,66.24
2017-09-05T08:25:12.874Z,65.56
2017-09-05T08:26:19.289Z,66.78
2017-09-05T08:27:26.235Z,67.89
2017-09-05T08:28:32.412Z,66.59
2017-09-05T08:29:38.528Z,66.06
2017-09-05T08:30:44.610Z,67.21
2017-09-05T08:31:50.937Z,66.51
2017-09-05T08:32:58.495Z,65.46
2017-09-05T08:34:04.800Z,65.61
2017-09-05T08:35:10.813Z,66.82
2017-09-05T08:36:17.343Z,66.44
2017-09-05T08:37:23.738Z,65.42
2017-09-05T08:38:31.473Z,64.64
2017-09-05T08:39:38.182Z,66.85
2017-09-05T08:40:44.220Z,65.77
2017-09-05T08:41:50.305Z,64.57
2017-09-05T08:42:56.315Z,64.92
2017-09-05T08:44:02.926Z,63.99
2017-09-05T08:45:08.932Z,64.10
2017-09-05T08:46:15.963Z,63.37
2017-09-05T08:47:23.626Z,62.21
2017-09-05T08:48:30.580Z,63.85
2017-09-05T08:49:38.801Z,62.50
2017-09-05T08:50:44.965Z,63.12
2017-09-05T08:51:51.879Z,64.05
2017-09-05T08:52:57.956Z,62.78
2017-09-05T08:54:03.873Z,61.89
2017-09-05T08:55:10.650Z,61.37
2017-09-05T08:56:18.431Z,61.45
2017-09-05T08:57:28.390Z,62.46
2017-09-05T08:58:37.897Z,60.27
2017-09-05T08:59:45.530Z,60.06
2017-09-05T09:00:52.383Z,59.30
2017-09-05T09:01:58.641Z,60.64
2017-09-05T09:03:04.868Z,59.63
2017-09-05T09:04:11.831Z,59.93
2017-09-05T09:05:17.801Z,59.94
2017-09-05T09:06:25.119Z,59.74
2017-09-05T09:07:31.063Z,58.34
2017-09-05T09:08:37.112Z,59.50
2017-09-05T09:09:43.046Z,58.84
2017-09-05T09:10:49.149Z,57.97
2017-09-05T09:11:55.077Z,57.91
2017-09-05T09:13:01.619Z,58.57
2017-09-05T09:14:08.265Z,58.67
2017-09-05T09:15:14.727Z,58.81
2017-09-05T09:16:21.429Z,59.51
2017-09-05T09:17:27.417Z,58.47
2017-09-05T09:18:33.326Z,55.32
2017-09-05T09:19:39.323Z,55.87
2017-09-05T09:20:45.339Z,54.73
2017-09-05T09:21:51.930Z,56.25
2017-09-05T09:22:59.709Z,56.20
2017-09-05T09:24:05.712Z,56.99
2017-09-05T09:25:12.213Z,56.64
2017-09-05T09:26:18.242Z,56.03
2017-09-05T09:27:24.225Z,54.82
2017-09-05T09:28:30.499Z,55.56
2017-09-05T09:29:36.379Z,56.06
2017-09-05T09:30:42.571Z,56.50
2017-09-05T09:31:48.768Z,56.04
2017-09-05T09:32:54.776Z,55.17
2017-09-05T09:34:00.715Z,54.14
2017-09-05T09:35:06.732Z,53.36
2017-09-05T09:36:12.687Z,54.30
2017-09-05T09:37:19.772Z,54.37
2017-09-05T09:38:25.723Z,54.21
2017-09-05T09:39:31.581Z,55.79
2017-09-05T09:40:37.449Z,54.78
2017-09-05T09:41:43.634Z,53.61
2017-09-05T09:42:50.633Z,52.99
2017-09-05T09:43:56.932Z,54.97
2017-09-05T09:45:03.376Z,54.13
2017-09-05T09:46:10.096Z,54.89
2017-09-05T09:47:17.917Z,52.84
2017-09-05T09:48:25.996Z,52.19
2017-09-05T09:49:35.094Z,51.56
2017-09-05T09:50:41.831Z,51.99
2017-09-05T09:51:47.740Z,52.52
2017-09-05T09:52:53.816Z,53.47
2017-09-05T09:54:00.351Z,53.57
2017-09-05T09:55:07.851Z,51.65
2017-09-05T09:56:13.856Z,52.08
2017-09-05T09:57:19.791Z,52.54
2017-09-05T09:58:25.716Z,53.26
2017-09-05T09:59:32.242Z,51.77
2017-09-05T10:00:38.306Z,51.36
2017-09-05T10:01:44.179Z,51.93
2017-09-05T10:02:50.195Z,49.73
2017-09-05T10:03:56.981Z,49.71
2017-09-05T10:05:03.095Z,49.88
2017-09-05T10:06:10.117Z,50.63
2017-09-05T10:07:16.673Z,50.58
2017-09-05T10:08:22.621Z,50.28
2017-09-05T10:09:28.477Z,49.14
2017-09-05T10:10:34.503Z,49.47
2017-09-05T10:11:40.980Z,49.80
2017-09-05T10:12:46.839Z,49.43
2017-09-05T10:13:52.687Z,49.17
2017-09-05T10:14:58.621Z,49.71
2017-09-05T10:16:04.658Z,50.41
2017-09-05T10:17:10.615Z,48.17
2017-09-05T10:18:17.231Z,50.46
2017-09-05T10:19:24.072Z,49.81
2017-09-05T10:20:29.915Z,49.30
2017-09-05T10:21:35.982Z,47.79
2017-09-05T10:22:42.485Z,48.60
2017-09-05T10:23:48.501Z,48.05
2017-09-05T10:24:54.512Z,48.10
2017-09-05T10:26:00.365Z,48.87
2017-09-05T10:27:06.347Z,47.84
2017-09-05T10:28:12.257Z,48.38
2017-09-05T10:29:18.714Z,48.64
2017-09-05T10:30:24.544Z,49.49
2017-09-05T10:31:30.492Z,49.11
2017-09-05T10:32:37.684Z,48.04
2017-09-05T10:33:43.620Z,48.86
2017-09-05T10:34:49.656Z,48.92
2017-09-05T10:35:56.508Z,51.17
2017-09-05T10:37:02.496Z,48.82
2017-09-05T10:38:08.463Z,48.11
2017-09-05T10:39:14.600Z,48.06
2017-09-05T10:40:20.626Z,48.61
2017-09-05T10:41:26.562Z,49.28
2017-09-05T10:42:32.468Z,49.27
2017-09-05T10:43:38.441Z,49.80
2017-09-05T10:44:44.435Z,49.14
2017-09-05T10:45:50.417Z,48.66
2017-09-05T10:46:56.452Z,48.83
2017-09-05T10:48:02.467Z,48.77
2017-09-05T10:49:08.463Z,48.25
2017-09-05T10:50:14.773Z,48.03
2017-09-05T10:51:20.984Z,48.61
2017-09-05T10:52:27.299Z,48.58
2017-09-05T10:53:33.401Z,49.92
2017-09-05T10:54:39.352Z,48.53
2017-09-05T10:55:46.122Z,48.01
2017-09-05T10:56:52.114Z,46.92
2017-09-05T10:57:58.121Z,45.86
2017-09-05T10:59:04.126Z,46.47
2017-09-05T11:00:10.471Z,47.78
2017-09-05T11:01:18.693Z,46.58
2017-09-05T11:02:24.615Z,47.41
2017-09-05T11:03:31.438Z,44.97
2017-09-05T11:04:37.458Z,46.06
2017-09-05T11:05:44.478Z,46.63
2017-09-05T11:06:51.455Z,45.21
2017-09-05T11:07:57.693Z,46.30
2017-09-05T11:09:04.529Z,46.50
2017-09-05T11:10:11.458Z,45.34
2017-09-05T11:11:17.463Z,45.43
2017-09-05T11:12:24.912Z,43.89
2017-09-05T11:13:31.020Z,46.39
2017-09-05T11:14:37.009Z,44.46
2017-09-05T11:15:43.022Z,44.90
2017-09-05T11:16:50.049Z,45.23
2017-09-05T11:17:56.371Z,44.34
2017-09-05T11:19:03.040Z,44.04
2017-09-05T11:20:09.759Z,44.97
2017-09-05T11:21:16.320Z,45.92
2017-09-05T11:22:22.446Z,44.84
2017-09-05T11:23:28.483Z,46.02
2017-09-05T11:24:36.589Z,46.08
2017-09-05T11:25:42.597Z,44.69
2017-09-05T11:26:49.525Z,43.45
2017-09-05T11:27:56.773Z,44.75
2017-09-05T11:29:02.708Z,44.08
2017-09-05T11:30:08.705Z,43.55
2017-09-05T11:31:16.314Z,44.10
2017-09-05T11:32:22.410Z,42.92
2017-09-05T11:33:28.656Z,41.63
2017-09-05T11:34:35.444Z,43.11
2017-09-05T11:35:42.367Z,44.47
2017-09-05T11:36:50.010Z,44.07
2017-09-05T11:37:56.156Z,41.98
2017-09-05T11:39:02.536Z,43.83
2017-09-05T11:40:10.614Z,42.99
2017-09-05T11:41:16.586Z,43.16
2017-09-05T11:42:22.520Z,41.51
2017-09-05T11:43:28.500Z,43.75
2017-09-05T11:44:34.500Z,43.76
2017-09-05T11:45:43.062Z,43.86
2017-09-05T11:46:50.299Z,44.20
2017-09-05T11:47:56.764Z,42.82
2017-09-05T11:49:03.537Z,41.92
2017-09-05T11:50:09.636Z,42.84
2017-09-05T11:51:16.436Z,42.09
2017-09-05T11:52:22.420Z,40.95
2017-09-05T11:53:28.738Z,41.23
2017-09-05T11:54:35.563Z,39.97
2017-09-05T11:55:41.508Z,40.97
2017-09-05T11:56:47.516Z,42.13
2017-09-05T11:57:53.429Z,41.67
2017-09-05T11:58:59.420Z,40.13
2017-09-05T12:00:08.887Z,40.84
2017-09-05T12:01:15.628Z,40.91
2017-09-05T12:02:22.352Z,39.43
2017-09-05T12:03:29.184Z,38.48
2017-09-05T12:04:35.283Z,41.38
2017-09-05T12:05:41.369Z,39.22
2017-09-05T12:06:47.384Z,40.95
2017-09-05T12:07:53.657Z,40.12
2017-09-05T12:08:59.739Z,40.02
2017-09-05T12:10:05.828Z,41.15
2017-09-05T12:11:12.539Z,40.05
2017-09-05T12:12:18.546Z,39.11
2017-09-05T12:13:24.646Z,40.04
2017-09-05T12:14:30.935Z,39.27
2017-09-05T12:15:36.863Z,39.08
2017-09-05T12:16:42.869Z,38.10
2017-09-05T12:17:48.981Z,39.31
2017-09-05T12:18:54.792Z,39.03
2017-09-05T12:20:00.976Z,40.34
2017-09-05T12:21:06.971Z,42.02
2017-09-05T12:22:13.955Z,40.49
2017-09-05T12:23:20.239Z,41.48
2017-09-05T12:24:27.269Z,40.92
2017-09-05T12:25:35.208Z,42.54
2017-09-05T12:26:42.037Z,43.24
2017-09-05T12:27:49.181Z,42.76
2017-09-05T12:28:55.378Z,43.39
2017-09-05T12:30:00.788Z,42.29
2017-09-05T12:31:06.852Z,42.86
2017-09-05T12:32:12.269Z,43.42
2017-09-05T12:33:18.438Z,43.41
2017-09-05T12:34:25.584Z,44.66
2017-09-05T12:35:31.429Z,43.89
2017-09-05T12:36:36.871Z,44.83
2017-09-05T12:37:42.363Z,44.29
2017-09-05T12:38:48.388Z,44.17
2017-09-05T12:39:54.681Z,43.88
2017-09-05T12:41:00.718Z,41.74
2017-09-05T12:42:10.303Z,42.94
2017-09-05T12:43:15.893Z,43.73
2017-09-05T12:44:21.691Z,41.19
2017-09-05T12:45:27.948Z,42.49
2017-09-05T12:46:34.423Z,43.28
2017-09-05T12:47:41.213Z,42.25
2017-09-05T12:48:48.050Z,43.38
2017-09-05T12:49:54.252Z,43.79
2017-09-05T12:51:00.951Z,44.56
2017-09-05T12:52:07.313Z,43.97
2017-09-05T12:53:13.437Z,44.88
2017-09-05T12:54:21.173Z,43.46
2017-09-05T12:55:27.668Z,43.27
2017-09-05T12:56:33.824Z,43.76
2017-09-05T12:57:41.331Z,44.68
2017-09-05T12:58:48.255Z,43.89
2017-09-05T12:59:54.563Z,44.02
2017-09-05T13:01:00.775Z,42.45
2017-09-05T13:02:07.007Z,43.90
2017-09-05T13:03:13.944Z,42.90
2017-09-05T13:04:21.183Z,43.88
2017-09-05T13:05:27.965Z,46.71
2017-09-05T13:06:34.280Z,45.30
2017-09-05T13:07:40.590Z,45.21
2017-09-05T13:08:50.290Z,45.12
2017-09-05T13:09:58.151Z,45.80
2017-09-05T13:11:05.527Z,43.99
2017-09-05T13:12:12.796Z,43.61
2017-09-05T13:13:18.957Z,43.63
2017-09-05T13:14:26.333Z,44.81
2017-09-05T13:15:33.080Z,46.25
2017-09-05T13:16:39.271Z,46.45
2017-09-05T13:17:45.466Z,46.52
2017-09-05T13:18:51.790Z,46.31
2017-09-05T13:19:58.381Z,44.73
2017-09-05T13:21:04.614Z,45.33
2017-09-05T13:22:10.823Z,45.01
2017-09-05T13:23:17.428Z,44.53
2017-09-05T13:24:23.676Z,47.21
2017-09-05T13:25:30.996Z,45.47
2017-09-05T13:26:37.311Z,44.36
2017-09-05T13:27:43.828Z,45.88
2017-09-05T13:28:51.164Z,45.26
2017-09-05T13:29:57.700Z,47.61
2017-09-05T13:31:04.403Z,45.67
2017-09-05T13:32:10.703Z,47.15
2017-09-05T13:33:17.635Z,45.74
2017-09-05T13:34:24.669Z,46.41
2017-09-05T13:35:33.952Z,46.19
2017-09-05T13:36:40.411Z,46.52
2017-09-05T13:37:47.088Z,47.02
2017-09-05T13:38:54.283Z,46.48
2017-09-05T13:40:01.251Z,45.71
2017-09-05T13:41:08.270Z,45.18
2017-09-05T13:42:14.764Z,44.77
2017-09-05T13:43:21.105Z,46.10
2017-09-05T13:44:28.475Z,45.63
2017-09-05T13:45:34.959Z,46.20
2017-09-05T13:46:41.159Z,46.89
2017-09-05T13:47:48.130Z,47.68
2017-09-05T13:48:54.702Z,49.27
2017-09-05T13:50:01.045Z,48.28
2017-09-05T13:51:07.929Z,49.18
2017-09-05T13:52:14.189Z,47.96
2017-09-05T13:53:25.233Z,48.15
2017-09-05T13:54:35.372Z,46.77
2017-09-05T13:55:41.583Z,46.42
2017-09-05T13:56:48.281Z,46.91
2017-09-05T13:57:54.618Z,47.98
2017-09-05T13:59:02.156Z,46.19
2017-09-05T14:00:08.758Z,46.18
2017-09-05T14:01:15.189Z,46.19
2017-09-05T14:02:21.781Z,44.97
2017-09-05T14:03:28.199Z,44.86
2017-09-05T14:04:34.534Z,44.46
2017-09-05T14:05:40.725Z,44.45
2017-09-05T14:06:47.251Z,45.49
2017-09-05T14:07:53.483Z,44.77
2017-09-05T14:08:59.887Z,44.57
2017-09-05T14:10:07.428Z,45.08
2017-09-05T14:11:14.636Z,45.67
2017-09-05T14:12:20.875Z,46.35
2017-09-05T14:13:27.183Z,47.09
2017-09-05T14:14:33.287Z,47.27
2017-09-05T14:15:41.646Z,48.40
2017-09-05T14:16:48.306Z,48.15
2017-09-05T14:17:56.078Z,46.51